createdAt,value
2022-10-08T00:01:14.857Z,50.74
2022-10-08T00:03:58.833Z,50.63
2022-10-08T00:06:30.361Z,50.66
2022-10-08T00:08:59.695Z,50.59
2022-10-08T00:11:29.406Z,50.75
2022-10-08T00:13:58.077Z,50.83
2022-10-08T00:16:27.597Z,50.89
2022-10-08T00:18:57.709Z,50.83
2022-10-08T00:21:28.080Z,50.62
2022-10-08T00:23:58.981Z,50.78
2022-10-08T00:26:27.468Z,50.98
2022-10-08T00:28:56.480Z,50.80
2022-10-08T00:31:25.746Z,50.85
2022-10-08T00:33:57.478Z,50.80
2022-10-08T00:36:26.876Z,51.05
2022-10-08T00:39:01.256Z,51.07
2022-10-08T00:41:30.794Z,51.07
2022-10-08T00:44:23.703Z,51.13
2022-10-08T00:46:51.032Z,51.04
2022-10-08T00:49:21.615Z,51.01
2022-10-08T00:51:52.443Z,51.04
2022-10-08T00:54:20.958Z,50.96
2022-10-08T00:56:51.153Z,50.90
2022-10-08T00:59:18.250Z,51.21
2022-10-08T01:01:44.931Z,51.32
2022-10-08T01:04:16.242Z,51.09
2022-10-08T01:06:54.685Z,50.92
2022-10-08T01:09:31.867Z,51.42
2022-10-08T01:12:09.593Z,51.29
2022-10-08T01:14:41.805Z,51.43
2022-10-08T01:17:30.269Z,51.45
2022-10-08T01:20:05.554Z,51.61
2022-10-08T01:23:07.803Z,51.15
2022-10-08T01:26:16.999Z,51.61
2022-10-08T01:28:47.473Z,51.41
2022-10-08T01:31:39.364Z,51.58
2022-10-08T01:34:13.162Z,51.90
2022-10-08T01:36:45.750Z,51.56
2022-10-08T01:39:19.937Z,51.90
2022-10-08T01:41:52.458Z,51.83
2022-10-08T01:44:46.403Z,52.43
2022-10-08T01:47:18.038Z,52.00
2022-10-08T01:49:51.467Z,52.28
2022-10-08T01:52:22.520Z,52.65
2022-10-08T01:54:55.160Z,52.58
2022-10-08T01:57:24.569Z,52.96
2022-10-08T01:59:57.091Z,53.02
2022-10-08T02:02:26.083Z,53.25
2022-10-08T02:04:55.789Z,53.21
2022-10-08T02:07:29.882Z,53.68
2022-10-08T02:10:14.859Z,54.05
2022-10-08T02:12:42.761Z,53.67
2022-10-08T02:15:43.119Z,53.78
2022-10-08T02:18:16.678Z,54.17
2022-10-08T02:20:52.874Z,53.96
2022-10-08T02:23:26.064Z,54.07
2022-10-08T02:26:10.030Z,54.20
2022-10-08T02:28:46.264Z,54.36
2022-10-08T02:31:21.625Z,54.41
2022-10-08T02:33:55.940Z,54.41
2022-10-08T02:36:28.311Z,54.35
2022-10-08T02:38:58.685Z,54.29
2022-10-08T02:41:34.518Z,54.81
2022-10-08T02:44:06.813Z,54.74
2022-10-08T02:46:38.028Z,54.96
2022-10-08T02:49:37.072Z,55.10
2022-10-08T02:52:06.499Z,55.12
2022-10-08T02:54:38.605Z,54.89
2022-10-08T02:57:21.337Z,55.59
2022-10-08T02:59:48.480Z,55.02
2022-10-08T03:02:22.672Z,55.56
2022-10-08T03:04:58.990Z,55.53
2022-10-08T03:07:28.781Z,55.40
2022-10-08T03:09:57.238Z,55.71
2022-10-08T03:12:25.376Z,55.76
2022-10-08T03:14:56.231Z,55.39
2022-10-08T03:17:38.294Z,55.66
2022-10-08T03:20:06.758Z,55.57
2022-10-08T03:22:33.921Z,55.46
2022-10-08T03:25:03.844Z,55.85
2022-10-08T03:27:30.381Z,55.43
2022-10-08T03:29:57.384Z,55.47
2022-10-08T03:32:25.144Z,55.81
2022-10-08T03:34:56.255Z,55.91
2022-10-08T03:37:22.722Z,55.52
2022-10-08T03:39:49.183Z,55.81
2022-10-08T03:42:15.757Z,55.56
2022-10-08T03:44:45.284Z,55.85
2022-10-08T03:47:11.744Z,55.86
2022-10-08T03:49:38.267Z,55.83
2022-10-08T03:52:04.743Z,56.09
2022-10-08T03:54:36.010Z,56.01
2022-10-08T03:57:03.147Z,55.75
2022-10-08T03:59:29.689Z,55.86
2022-10-08T04:01:56.319Z,56.07
2022-10-08T04:04:27.381Z,56.13
2022-10-08T04:06:53.909Z,55.58
2022-10-08T04:09:20.387Z,55.76
2022-10-08T04:11:46.843Z,55.77
2022-10-08T04:14:14.542Z,55.86
2022-10-08T04:16:41.019Z,55.60
2022-10-08T04:19:07.563Z,55.85
2022-10-08T04:21:34.079Z,55.62
2022-10-08T04:24:02.313Z,55.98
2022-10-08T04:26:28.786Z,55.55
2022-10-08T04:28:55.333Z,55.65
2022-10-08T04:31:23.487Z,55.78
2022-10-08T04:34:15.272Z,55.89
2022-10-08T04:36:41.794Z,55.84
2022-10-08T04:39:08.309Z,56.20
2022-10-08T04:41:34.901Z,56.12
2022-10-08T04:44:03.205Z,55.82
2022-10-08T04:46:29.855Z,55.85
2022-10-08T04:48:56.997Z,55.80
2022-10-08T04:51:25.585Z,56.07
2022-10-08T04:54:01.876Z,55.83
2022-10-08T04:56:31.255Z,55.98
2022-10-08T04:58:59.333Z,56.36
2022-10-08T05:01:27.698Z,56.39
2022-10-08T05:03:59.824Z,56.63
2022-10-08T05:06:29.871Z,56.70
2022-10-08T05:08:58.381Z,57.01
2022-10-08T05:11:26.679Z,56.94
2022-10-08T05:13:58.091Z,57.27
2022-10-08T05:16:25.721Z,57.18
2022-10-08T05:18:53.044Z,57.54
2022-10-08T05:21:22.424Z,57.81
2022-10-08T05:24:09.376Z,58.14
2022-10-08T05:26:57.685Z,57.85
2022-10-08T05:29:25.254Z,57.92
2022-10-08T05:31:51.755Z,58.14
2022-10-08T05:34:19.451Z,58.47
2022-10-08T05:36:46.206Z,58.52
2022-10-08T05:39:12.728Z,58.31
2022-10-08T05:41:39.551Z,58.66
2022-10-08T05:44:10.817Z,59.01
2022-10-08T05:46:38.365Z,58.97
2022-10-08T05:49:08.184Z,58.85
2022-10-08T05:51:36.117Z,58.93
2022-10-08T05:54:05.669Z,58.99
2022-10-08T05:56:32.217Z,58.78
2022-10-08T05:58:59.074Z,59.07
2022-10-08T06:01:31.518Z,59.08
2022-10-08T06:04:08.405Z,59.30
2022-10-08T06:06:36.701Z,59.10
2022-10-08T06:09:03.721Z,59.40
2022-10-08T06:11:32.322Z,59.10
2022-10-08T06:14:01.333Z,59.47
2022-10-08T06:16:29.718Z,59.24
2022-10-08T06:18:56.300Z,59.24
2022-10-08T06:21:25.348Z,59.27
2022-10-08T06:24:01.187Z,59.53
2022-10-08T06:26:35.764Z,59.34
2022-10-08T06:29:05.383Z,59.18
2022-10-08T06:31:32.015Z,59.39
2022-10-08T06:34:04.537Z,59.51
2022-10-08T06:36:32.869Z,59.56
2022-10-08T06:39:02.451Z,59.42
2022-10-08T06:41:36.001Z,59.38
2022-10-08T06:44:12.227Z,59.13
2022-10-08T06:46:38.946Z,59.33
2022-10-08T06:49:06.836Z,59.35
2022-10-08T06:51:34.297Z,59.53
2022-10-08T06:54:07.350Z,59.16
2022-10-08T06:56:36.129Z,59.43
2022-10-08T06:59:03.565Z,59.57
2022-10-08T07:01:33.217Z,59.22
2022-10-08T07:04:03.831Z,59.20
2022-10-08T07:06:30.403Z,59.34
2022-10-08T07:09:00.022Z,59.72
2022-10-08T07:11:27.418Z,59.44
2022-10-08T07:13:58.167Z,59.50
2022-10-08T07:16:27.029Z,59.72
2022-10-08T07:18:55.989Z,59.58
2022-10-08T07:21:23.032Z,59.49
2022-10-08T07:23:51.517Z,59.51
2022-10-08T07:26:25.772Z,58.95
2022-10-08T07:28:58.590Z,58.92
2022-10-08T07:31:29.529Z,59.01
2022-10-08T07:34:02.310Z,58.73
2022-10-08T07:36:29.790Z,58.80
2022-10-08T07:38:58.746Z,58.88
2022-10-08T07:41:25.974Z,58.86
2022-10-08T07:44:00.713Z,59.10
2022-10-08T07:46:29.057Z,58.96
2022-10-08T07:48:58.848Z,58.72
2022-10-08T07:51:26.271Z,59.09
2022-10-08T07:53:57.741Z,58.83
2022-10-08T07:56:28.137Z,58.94
2022-10-08T07:58:54.666Z,58.64
2022-10-08T08:01:28.341Z,58.43
2022-10-08T08:04:02.036Z,58.19
2022-10-08T08:06:30.264Z,58.47
2022-10-08T08:08:57.556Z,57.99
2022-10-08T08:11:24.907Z,58.00
2022-10-08T08:13:53.955Z,57.76
2022-10-08T08:16:25.295Z,57.53
2022-10-08T08:18:54.246Z,56.98
2022-10-08T08:21:24.472Z,56.91
2022-10-08T08:23:56.466Z,56.20
2022-10-08T08:26:25.568Z,56.13
2022-10-08T08:28:53.770Z,55.60
2022-10-08T08:31:25.855Z,55.57
2022-10-08T08:33:58.175Z,55.41
2022-10-08T08:36:34.275Z,54.91
2022-10-08T08:39:01.934Z,54.82
2022-10-08T08:41:56.145Z,54.01
2022-10-08T08:44:40.868Z,53.78
2022-10-08T08:47:30.250Z,53.25
2022-10-08T08:50:08.169Z,53.26
2022-10-08T08:52:40.018Z,52.99
2022-10-08T08:55:20.058Z,52.37
2022-10-08T08:58:04.357Z,52.18
2022-10-08T09:00:36.259Z,51.83
2022-10-08T09:03:11.085Z,51.45
2022-10-08T09:05:45.932Z,51.49
2022-10-08T09:08:23.925Z,51.72
2022-10-08T09:11:02.656Z,51.20
2022-10-08T09:13:37.005Z,51.13
2022-10-08T09:16:04.796Z,50.62
2022-10-08T09:18:32.086Z,50.42
2022-10-08T09:20:58.657Z,50.43
2022-10-08T09:23:26.393Z,50.11
2022-10-08T09:26:03.288Z,50.05
2022-10-08T09:28:46.312Z,49.77
2022-10-08T09:31:30.109Z,49.88
2022-10-08T09:34:17.900Z,49.92
2022-10-08T09:37:03.104Z,49.60
2022-10-08T09:39:32.211Z,49.56
2022-10-08T09:42:07.660Z,49.16
2022-10-08T09:44:50.777Z,48.80
2022-10-08T09:47:20.195Z,48.41
2022-10-08T09:50:02.249Z,48.22
2022-10-08T09:52:29.432Z,48.02
2022-10-08T09:55:08.799Z,47.89
2022-10-08T09:57:43.970Z,47.76
2022-10-08T10:00:28.715Z,48.00
2022-10-08T10:02:57.513Z,48.26
2022-10-08T10:05:29.721Z,47.81
2022-10-08T10:07:56.240Z,48.25
2022-10-08T10:10:36.604Z,48.30
2022-10-08T10:13:10.578Z,47.68
2022-10-08T10:16:02.399Z,47.44
2022-10-08T10:18:34.894Z,47.31
2022-10-08T10:21:05.708Z,47.46
2022-10-08T10:23:41.131Z,46.70
2022-10-08T10:26:13.158Z,46.26
2022-10-08T10:28:52.524Z,46.08
2022-10-08T10:31:23.395Z,45.79
2022-10-08T10:34:02.784Z,45.91
2022-10-08T10:36:37.120Z,45.93
2022-10-08T10:39:17.746Z,45.39
2022-10-08T10:41:54.955Z,45.20
2022-10-08T10:44:33.160Z,45.00
2022-10-08T10:47:01.374Z,44.56
2022-10-08T10:49:38.205Z,44.51
2022-10-08T10:52:04.616Z,44.09
2022-10-08T10:55:06.243Z,43.65
2022-10-08T10:57:58.980Z,43.23
2022-10-08T11:00:32.578Z,43.07
2022-10-08T11:03:07.453Z,42.95
2022-10-08T11:05:40.355Z,42.74
2022-10-08T11:08:19.333Z,42.53
2022-10-08T11:10:56.358Z,42.68
2022-10-08T11:13:22.910Z,42.31
2022-10-08T11:16:01.478Z,41.83
2022-10-08T11:18:51.893Z,41.98
2022-10-08T11:21:39.908Z,42.08
2022-10-08T11:24:16.972Z,42.01
2022-10-08T11:27:01.391Z,41.88
2022-10-08T11:29:50.665Z,41.92
2022-10-08T11:32:19.119Z,41.78
2022-10-08T11:34:53.491Z,41.40
2022-10-08T11:37:39.916Z,40.95
2022-10-08T11:40:21.324Z,41.13
2022-10-08T11:43:05.338Z,41.22
2022-10-08T11:45:40.895Z,41.30
2022-10-08T11:48:24.245Z,41.68
2022-10-08T11:50:51.079Z,41.34
2022-10-08T11:53:22.252Z,40.82
2022-10-08T11:55:57.539Z,40.46
2022-10-08T11:58:35.274Z,39.94
2022-10-08T12:01:11.089Z,39.66
2022-10-08T12:03:41.245Z,39.05
2022-10-08T12:06:23.771Z,39.19
2022-10-08T12:09:01.434Z,39.14
2022-10-08T12:11:39.722Z,39.09
2022-10-08T12:14:16.836Z,39.32
2022-10-08T12:16:49.306Z,39.09
2022-10-08T12:19:34.028Z,39.20
2022-10-08T12:22:24.146Z,39.47
2022-10-08T12:24:58.523Z,39.17
2022-10-08T12:27:31.336Z,39.42
2022-10-08T12:30:04.180Z,39.11
2022-10-08T12:32:53.021Z,38.91
2022-10-08T12:35:37.474Z,38.54
2022-10-08T12:38:16.169Z,38.30
2022-10-08T12:40:53.380Z,38.33
2022-10-08T12:43:50.585Z,38.71
2022-10-08T12:46:29.508Z,38.65
2022-10-08T12:49:19.465Z,38.32
2022-10-08T12:51:56.622Z,38.59
2022-10-08T12:54:29.134Z,38.77
2022-10-08T12:56:56.320Z,38.77
2022-10-08T12:59:26.249Z,38.58
2022-10-08T13:01:55.038Z,38.68
2022-10-08T13:04:33.809Z,38.74
2022-10-08T13:07:00.596Z,38.79
2022-10-08T13:09:33.128Z,38.89
2022-10-08T13:12:03.499Z,39.10
2022-10-08T13:14:38.492Z,38.92
2022-10-08T13:17:05.793Z,38.85
2022-10-08T13:19:39.690Z,38.79
2022-10-08T13:22:26.639Z,38.25
2022-10-08T13:24:53.914Z,37.90
2022-10-08T13:27:27.457Z,37.50
2022-10-08T13:29:55.967Z,37.37
2022-10-08T13:32:28.637Z,37.39
2022-10-08T13:35:23.761Z,37.11
2022-10-08T13:37:54.283Z,37.06
2022-10-08T13:40:23.859Z,37.00
2022-10-08T13:42:52.056Z,36.45
2022-10-08T13:45:23.993Z,36.45
2022-10-08T13:47:51.468Z,36.19
2022-10-08T13:50:19.422Z,36.69
2022-10-08T13:52:51.220Z,36.61
2022-10-08T13:55:33.363Z,36.50
2022-10-08T13:58:02.271Z,36.34
2022-10-08T14:00:31.306Z,35.98
2022-10-08T14:02:58.225Z,36.05
2022-10-08T14:05:31.585Z,36.02
2022-10-08T14:08:02.474Z,36.21
2022-10-08T14:10:29.095Z,35.91
2022-10-08T14:12:55.629Z,36.16
2022-10-08T14:15:22.533Z,35.79
2022-10-08T14:17:53.310Z,35.94
2022-10-08T14:20:20.133Z,36.06
2022-10-08T14:22:46.664Z,36.21
2022-10-08T14:25:23.978Z,36.14
2022-10-08T14:27:51.234Z,36.06
2022-10-08T14:30:18.442Z,35.88
2022-10-08T14:32:45.558Z,35.88
2022-10-08T14:35:13.364Z,36.00
2022-10-08T14:37:39.878Z,35.92
2022-10-08T14:40:08.751Z,36.06
2022-10-08T14:42:35.307Z,36.02
2022-10-08T14:45:05.092Z,35.88
2022-10-08T14:47:31.783Z,35.67
2022-10-08T14:49:58.706Z,35.46
2022-10-08T14:52:25.166Z,35.58
2022-10-08T14:54:56.028Z,35.73
2022-10-08T14:57:23.063Z,35.57
2022-10-08T14:59:49.531Z,35.78
2022-10-08T15:02:16.127Z,35.51
2022-10-08T15:04:45.413Z,35.77
2022-10-08T15:07:11.885Z,35.88
2022-10-08T15:09:40.446Z,35.76
2022-10-08T15:12:07.979Z,35.69
2022-10-08T15:14:38.700Z,35.31
2022-10-08T15:17:05.296Z,35.51
2022-10-08T15:19:31.777Z,35.62
2022-10-08T15:21:58.270Z,35.40
2022-10-08T15:24:27.880Z,35.72
2022-10-08T15:26:54.565Z,35.77
2022-10-08T15:29:21.270Z,35.86
2022-10-08T15:31:50.699Z,36.24
2022-10-08T15:34:19.995Z,36.49
2022-10-08T15:36:47.512Z,36.46
2022-10-08T15:39:18.832Z,36.66
2022-10-08T15:41:49.243Z,36.72
2022-10-08T15:44:30.505Z,37.03
2022-10-08T15:46:59.645Z,37.25
2022-10-08T15:49:33.045Z,37.54
2022-10-08T15:52:01.192Z,37.66
2022-10-08T15:54:27.898Z,37.86
2022-10-08T15:56:54.422Z,38.02
2022-10-08T15:59:21.027Z,38.03
2022-10-08T16:01:47.526Z,38.31
2022-10-08T16:04:15.770Z,38.28
2022-10-08T16:06:45.469Z,38.62
2022-10-08T16:09:14.035Z,38.49
2022-10-08T16:11:41.042Z,38.90
2022-10-08T16:14:19.992Z,38.75
2022-10-08T16:16:46.911Z,38.86
2022-10-08T16:19:16.330Z,38.60
2022-10-08T16:21:44.059Z,39.05
2022-10-08T16:24:14.156Z,38.65
2022-10-08T16:26:41.920Z,38.58
2022-10-08T16:29:12.156Z,38.45
2022-10-08T16:31:40.626Z,38.45
2022-10-08T16:34:19.336Z,38.44
2022-10-08T16:36:48.110Z,38.50
2022-10-08T16:39:17.990Z,38.55
2022-10-08T16:41:44.989Z,39.05
2022-10-08T16:44:15.820Z,39.01
2022-10-08T16:46:51.441Z,39.41
2022-10-08T16:49:27.341Z,39.13
2022-10-08T16:51:57.929Z,39.04
2022-10-08T16:54:29.372Z,39.72
2022-10-08T16:56:56.690Z,39.77
2022-10-08T16:59:25.511Z,39.56
2022-10-08T17:01:55.080Z,39.71
2022-10-08T17:04:26.425Z,39.87
2022-10-08T17:06:53.301Z,40.12
2022-10-08T17:09:20.681Z,39.81
2022-10-08T17:11:47.403Z,40.08
2022-10-08T17:14:15.942Z,40.06
2022-10-08T17:16:43.527Z,40.14
2022-10-08T17:19:10.589Z,39.95
2022-10-08T17:21:37.121Z,40.26
2022-10-08T17:24:04.938Z,40.54
2022-10-08T17:26:31.798Z,40.79
2022-10-08T17:29:03.480Z,40.94
2022-10-08T17:31:31.690Z,40.64
2022-10-08T17:34:03.941Z,40.68
2022-10-08T17:36:33.282Z,41.03
2022-10-08T17:39:01.650Z,41.14
2022-10-08T17:41:30.539Z,41.14
2022-10-08T17:44:03.413Z,40.99
2022-10-08T17:46:32.602Z,41.20
2022-10-08T17:48:59.262Z,41.21
2022-10-08T17:51:30.200Z,41.33
2022-10-08T17:54:07.338Z,41.70
2022-10-08T17:56:34.425Z,41.44
2022-10-08T17:59:01.106Z,41.97
2022-10-08T18:01:30.543Z,41.79
2022-10-08T18:04:04.467Z,41.90
2022-10-08T18:06:32.625Z,42.00
2022-10-08T18:09:01.611Z,41.96
2022-10-08T18:11:30.139Z,42.41
2022-10-08T18:14:00.847Z,42.26
2022-10-08T18:16:27.518Z,42.73
2022-10-08T18:18:54.037Z,42.49
2022-10-08T18:21:21.045Z,43.01
2022-10-08T18:23:51.035Z,43.27
2022-10-08T18:26:19.230Z,43.09
2022-10-08T18:28:47.586Z,43.14
2022-10-08T18:31:15.446Z,43.05
2022-10-08T18:34:03.425Z,43.64
2022-10-08T18:36:36.123Z,43.56
2022-10-08T18:39:08.406Z,43.58
2022-10-08T18:41:38.315Z,43.64
2022-10-08T18:44:12.067Z,44.05
2022-10-08T18:46:39.286Z,44.17
2022-10-08T18:49:06.743Z,44.42
2022-10-08T18:51:34.454Z,44.21
2022-10-08T18:54:05.004Z,44.17
2022-10-08T18:56:35.351Z,44.67
2022-10-08T18:59:05.061Z,44.62
2022-10-08T19:01:35.752Z,44.88
2022-10-08T19:04:06.478Z,44.56
2022-10-08T19:06:37.449Z,44.72
2022-10-08T19:09:05.459Z,44.81
2022-10-08T19:11:44.997Z,44.94
2022-10-08T19:14:15.882Z,45.15
2022-10-08T19:16:43.132Z,44.98
2022-10-08T19:19:16.262Z,45.34
2022-10-08T19:21:43.517Z,45.58
2022-10-08T19:24:21.271Z,45.60
2022-10-08T19:26:49.036Z,45.74
2022-10-08T19:29:29.169Z,45.85
2022-10-08T19:31:56.709Z,45.80
2022-10-08T19:34:27.949Z,45.99
2022-10-08T19:36:55.399Z,46.06
2022-10-08T19:39:27.968Z,46.43
2022-10-08T19:41:54.964Z,46.08
2022-10-08T19:44:22.790Z,46.01
2022-10-08T19:46:49.690Z,46.49
2022-10-08T19:49:16.904Z,46.67
2022-10-08T19:51:44.006Z,46.30
2022-10-08T19:54:12.977Z,46.67
2022-10-08T19:56:39.863Z,46.51
2022-10-08T19:59:10.521Z,46.77
2022-10-08T20:01:37.856Z,46.79
2022-10-08T20:04:09.787Z,46.74
2022-10-08T20:06:39.354Z,46.99
2022-10-08T20:09:07.876Z,46.67
2022-10-08T20:11:34.506Z,46.52
2022-10-08T20:14:05.473Z,46.98
2022-10-08T20:16:35.391Z,46.94
2022-10-08T20:19:06.513Z,46.98
2022-10-08T20:21:35.792Z,47.10
2022-10-08T20:24:07.478Z,47.44
2022-10-08T20:26:39.488Z,47.53
2022-10-08T20:29:08.824Z,47.05
2022-10-08T20:31:38.968Z,47.25
2022-10-08T20:34:13.536Z,47.32
2022-10-08T20:36:40.577Z,47.28
2022-10-08T20:39:07.226Z,47.18
2022-10-08T20:41:33.901Z,47.42
2022-10-08T20:44:02.793Z,47.49
2022-10-08T20:46:30.370Z,47.80
2022-10-08T20:48:57.329Z,47.74
2022-10-08T20:51:25.951Z,47.72
2022-10-08T20:54:00.434Z,47.58
2022-10-08T20:56:28.747Z,47.58
2022-10-08T20:58:55.470Z,47.94
2022-10-08T21:01:34.145Z,47.69
2022-10-08T21:04:02.924Z,47.78
2022-10-08T21:06:32.094Z,47.36
2022-10-08T21:09:05.119Z,48.29
2022-10-08T21:11:32.007Z,48.09
2022-10-08T21:14:03.464Z,47.99
2022-10-08T21:16:32.981Z,48.18
2022-10-08T21:19:01.578Z,48.16
2022-10-08T21:21:29.766Z,48.10
2022-10-08T21:24:00.895Z,48.25
2022-10-08T21:26:32.550Z,48.12
2022-10-08T21:29:04.801Z,48.09
2022-10-08T21:31:32.913Z,48.51
2022-10-08T21:34:04.272Z,48.50
2022-10-08T21:36:33.498Z,48.56
2022-10-08T21:39:01.294Z,48.70
2022-10-08T21:41:30.842Z,48.64
2022-10-08T21:44:04.053Z,48.79
2022-10-08T21:46:33.130Z,48.60
2022-10-08T21:49:05.431Z,48.98
2022-10-08T21:51:32.701Z,48.99
2022-10-08T21:54:04.446Z,48.86
2022-10-08T21:56:33.794Z,48.72
2022-10-08T21:59:01.807Z,48.77
2022-10-08T22:01:42.903Z,48.85
2022-10-08T22:04:24.066Z,49.10
2022-10-08T22:06:53.347Z,48.87
2022-10-08T22:09:23.638Z,49.05
2022-10-08T22:11:51.302Z,48.98
2022-10-08T22:14:22.679Z,49.15
2022-10-08T22:16:49.546Z,49.16
2022-10-08T22:19:16.098Z,49.12
2022-10-08T22:21:42.820Z,49.20
2022-10-08T22:24:09.949Z,49.27
2022-10-08T22:26:40.059Z,49.43
2022-10-08T22:29:07.645Z,49.80
2022-10-08T22:31:34.304Z,49.76
2022-10-08T22:34:04.358Z,49.83
2022-10-08T22:36:32.486Z,49.91
2022-10-08T22:38:59.822Z,50.23
2022-10-08T22:41:28.859Z,50.12
2022-10-08T22:44:00.414Z,50.46
2022-10-08T22:46:31.955Z,50.21
2022-10-08T22:48:59.921Z,50.37
2022-10-08T22:51:26.862Z,50.49
2022-10-08T22:53:58.586Z,50.59
2022-10-08T22:56:28.292Z,50.63
2022-10-08T22:58:54.992Z,50.84
2022-10-08T23:01:24.149Z,50.64
2022-10-08T23:03:55.389Z,51.02
2022-10-08T23:06:31.406Z,51.03
2022-10-08T23:09:04.359Z,50.83
2022-10-08T23:11:34.177Z,50.94
2022-10-08T23:14:01.996Z,51.18
2022-10-08T23:16:29.993Z,51.31
2022-10-08T23:18:59.706Z,51.30
2022-10-08T23:21:28.494Z,51.31
2022-10-08T23:23:58.774Z,51.45
2022-10-08T23:26:26.722Z,51.48
2022-10-08T23:28:56.465Z,51.50
2022-10-08T23:31:28.893Z,51.51
2022-10-08T23:33:58.202Z,51.85
2022-10-08T23:36:30.294Z,51.60
2022-10-08T23:38:56.978Z,51.75
2022-10-08T23:41:24.743Z,51.84
2022-10-08T23:43:53.759Z,51.87
2022-10-08T23:46:24.094Z,51.98
2022-10-08T23:48:51.823Z,51.65
2022-10-08T23:51:19.964Z,52.03
2022-10-08T23:53:48.319Z,51.86
2022-10-08T23:56:15.206Z,51.99
2022-10-08T23:58:41.846Z,52.08
